Terminal Aerodrome Forecast
Issued by NWS

Home | Current Version | Previous Version | Text Only | Print | Product List | Glossary On
Versions: 1 2 3 4 5 6 7 8 9 10 11 12 13 14 15 16 17 18 19 20 21 22
000
FTUS44 KLIX 230500
TAFHUM
TAF
KHUM 230530Z 2306/2406 00000KT 3SM BR SKC
      TEMPO 2306/2308 1SM BR
     FM230800 00000KT 1/2SM FG SCT002
     FM231400 02005KT P6SM FEW025
     FM232000 16007KT P6SM FEW040=

USA.gov is the U.S. government's official web portal to all federal, state and local government web resources and services.